Terminal Aerodrome Forecast
Issued by NWS

Home | Current Version | Previous Version | Text Only | Print | Product List | Glossary On
Versions: 1 2 3 4 5 6 7 8 9 10 11 12 13 14 15
000
FTUS45 KCYS 221124
TAFLAR
TAF
KLAR 221124Z 2212/2312 VRB06KT P6SM VCSH BKN050
      TEMPO 2212/2216 35010G20KT 3SM -SN OVC020
     FM222100 30012KT P6SM VCSH OVC080
     FM230200 34008KT 4SM -SN SCT010 OVC030=

USA.gov is the U.S. government's official web portal to all federal, state and local government web resources and services.